Time;durP1;ratioP1;P1;durP2;ratioP2;P2;SDS_P1;SDS_P2;PMS_P1;PMS_P2;Temp;Humidity;BMP_temperature;BMP_pressure;BME280_temperature;BME280_humidity;BME280_pressure;Samples;Min_cycle;Max_cycle;Signal;HPM_P1;HPM_P2
2022/05/10 00:00:00;;;;;;;45.78;40.70;;;;;;;17.32;58.95;99249.91;5014798;28;20057;-49
2022/05/10 00:02:34;;;;;;;61.15;55.30;;;;;;;17.28;58.92;99254.06;5014696;28;20029;-50
2022/05/10 00:05:00;;;;;;;804.55;633.65;;;;;;;17.32;59.00;99253.34;4997137;28;20038;-50
2022/05/10 00:07:31;;;;;;;249.07;222.68;;;;;;;17.35;59.11;99257.41;5014718;28;20369;-50
2022/05/10 00:09:57;;;;;;;62.80;43.60;;;;;;;17.36;58.96;99254.53;5014730;28;20523;-50
2022/05/10 00:12:22;;;;;;;26.45;18.77;;;;;;;17.32;59.02;99253.34;5014619;28;20033;-49
2022/05/10 00:14:48;;;;;;;12.90;9.20;;;;;;;17.26;58.75;99250.81;5014600;28;20396;-50
2022/05/10 00:17:41;;;;;;;13.00;9.20;;;;;;;17.13;59.67;99257.16;4996836;28;20025;-49
2022/05/10 00:20:10;;;;;;;8.50;6.72;;;;;;;17.15;59.29;99260.41;5014026;28;20042;-49
2022/05/10 00:22:37;;;;;;;11.07;6.45;;;;;;;17.07;59.36;99252.78;5014389;28;20018;-49
2022/05/10 00:25:05;;;;;;;9.32;6.13;;;;;;;16.86;60.10;99249.63;5014368;28;20022;-49
2022/05/10 00:27:31;;;;;;;11.88;6.25;;;;;;;16.81;60.24;99257.44;5014342;28;20087;-49
2022/05/10 00:29:57;;;;;;;12.90;8.82;;;;;;;16.69;60.65;99254.72;4996623;28;20029;-49
2022/05/10 00:32:27;;;;;;;6.65;5.53;;;;;;;16.52;60.96;99259.88;5014374;28;20025;-49
2022/05/10 00:34:55;;;;;;;7.35;5.65;;;;;;;16.40;61.42;99261.66;5014088;28;20133;-50
2022/05/10 00:37:22;;;;;;;8.05;6.57;;;;;;;16.30;61.66;99258.75;5014133;28;20025;-50
2022/05/10 00:39:48;;;;;;;11.40;6.32;;;;;;;16.28;62.02;99256.31;5014129;28;20061;-48
2022/05/10 00:42:24;;;;;;;12.80;7.25;;;;;;;16.42;61.93;99258.78;5013881;28;20024;-49
2022/05/10 00:44:58;;;;;;;7.22;5.97;;;;;;;16.50;61.78;99255.81;4996278;28;20089;-50
2022/05/10 00:47:37;;;;;;;7.05;5.68;;;;;;;16.57;61.38;99256.53;5013942;28;20029;-50
2022/05/10 00:50:09;;;;;;;9.30;6.80;;;;;;;16.53;61.16;99250.88;5013924;28;20036;-50
2022/05/10 00:53:20;;;;;;;8.27;7.47;;;;;;;16.40;61.50;99251.06;4996310;28;20029;-50
2022/05/10 00:56:06;;;;;;;12.60;9.68;;;;;;;16.45;61.57;99253.03;4973444;28;20142;-50
2022/05/10 00:58:39;;;;;;;13.02;11.82;;;;;;;16.50;61.34;99248.69;4973554;28;20527;-54
2022/05/10 01:01:05;;;;;;;7.75;5.95;;;;;;;16.56;60.92;99247.78;4974713;28;20077;-52
2022/05/10 01:03:37;;;;;;;13.43;5.40;;;;;;;16.51;61.16;99245.00;4973391;28;20445;-53
2022/05/10 01:06:29;;;;;;;10.95;5.95;;;;;;;16.52;61.18;99243.97;4973382;28;20038;-52
2022/05/10 01:09:18;;;;;;;13.10;11.38;;;;;;;16.57;61.18;99241.44;4962862;28;20116;-52
2022/05/10 01:12:29;;;;;;;8.88;5.75;;;;;;;16.62;60.90;99242.59;4973271;28;20035;-53
2022/05/10 01:15:01;;;;;;;7.30;5.78;;;;;;;16.64;60.70;99245.84;4974448;28;20086;-53
2022/05/10 01:17:27;;;;;;;9.15;5.75;;;;;;;16.53;60.67;99242.91;4974509;28;20110;-53
2022/05/10 01:19:53;;;;;;;9.93;6.50;;;;;;;16.41;61.01;99234.13;4974339;28;20123;-51
2022/05/10 01:22:46;;;;;;;10.70;6.15;;;;;;;16.37;61.56;99244.34;4974245;28;20109;-53
2022/05/10 01:25:56;;;;;;;5.57;5.13;;;;;;;16.25;61.60;99240.84;4974328;28;20022;-52
2022/05/10 01:28:59;;;;;;;7.20;6.13;;;;;;;16.06;62.43;99240.09;4973046;28;20066;-52
2022/05/10 01:31:32;;;;;;;7.95;6.10;;;;;;;15.89;62.69;99239.06;4973702;28;20027;-52
2022/05/10 01:34:07;;;;;;;10.65;6.43;;;;;;;15.75;63.40;99235.75;4974200;28;20521;-53
2022/05/10 01:36:56;;;;;;;6.80;5.87;;;;;;;15.73;63.95;99241.25;4974210;28;20031;-53
2022/05/10 01:39:35;;;;;;;7.70;6.28;;;;;;;15.69;63.65;99237.41;4972880;28;20498;-52
2022/05/10 01:42:11;;;;;;;7.78;5.88;;;;;;;15.66;64.13;99237.03;4972768;28;20092;-52
2022/05/10 01:44:51;;;;;;;6.88;6.18;;;;;;;15.60;64.33;99230.00;4974077;28;20030;-53
2022/05/10 01:47:28;;;;;;;12.60;11.40;;;;;;;15.59;64.71;99237.09;4973932;28;20046;-53
2022/05/10 01:50:05;;;;;;;9.40;7.20;;;;;;;15.66;64.31;99231.75;4972613;28;20525;-52
2022/05/10 01:52:41;;;;;;;9.48;6.60;;;;;;;15.52;64.37;99231.06;4973859;28;20041;-52
2022/05/10 01:55:24;;;;;;;7.57;6.53;;;;;;;15.38;64.44;99238.31;4992487;28;20042;-53
2022/05/10 01:57:52;;;;;;;11.98;6.20;;;;;;;15.37;64.30;99229.59;4993119;28;20038;-52
2022/05/10 02:00:24;;;;;;;10.82;7.93;;;;;;;15.37;64.65;99236.69;4993082;28;20081;-53
2022/05/10 02:03:01;;;;;;;10.63;7.70;;;;;;;15.21;65.12;99227.47;4991661;28;20029;-53
2022/05/10 02:05:39;;;;;;;19.33;17.38;;;;;;;15.04;65.65;99232.50;4991723;28;20034;-53
2022/05/10 02:08:22;;;;;;;13.73;8.25;;;;;;;14.90;66.12;99228.34;4993021;28;20081;-53
2022/05/10 02:10:51;;;;;;;9.63;7.50;;;;;;;14.85;66.41;99223.72;4991634;28;20038;-52
2022/05/10 02:13:26;;;;;;;10.15;8.07;;;;;;;14.74;66.59;99221.75;4992888;28;20113;-52
2022/05/10 02:16:17;;;;;;;12.93;8.45;;;;;;;14.73;67.46;99217.50;4991546;28;20084;-52
2022/05/10 02:18:55;;;;;;;11.40;7.28;;;;;;;15.01;66.67;99225.03;4992817;28;20026;-53
2022/05/10 02:21:27;;;;;;;8.43;7.55;;;;;;;15.19;66.21;99221.59;4991437;28;20466;-53
2022/05/10 02:24:05;;;;;;;8.23;6.80;;;;;;;15.30;65.67;99223.53;4992760;28;20408;-51
2022/05/10 02:26:41;;;;;;;14.07;7.20;;;;;;;15.40;65.11;99217.75;4992683;28;20065;-52
2022/05/10 02:29:24;;;;;;;10.55;8.02;;;;;;;15.37;65.21;99221.66;4992724;28;20026;-53
2022/05/10 02:34:55;;;;;;;20.17;18.23;;;;;;;15.17;65.31;99213.06;4951601;29;20051;-52
2022/05/10 02:37:21;;;;;;;9.48;8.63;;;;;;;15.14;65.73;99218.81;4935587;29;20027;-52
2022/05/10 02:39:47;;;;;;;10.30;6.75;;;;;;;15.07;65.67;99220.69;4935552;29;20049;-53
2022/05/10 02:42:16;;;;;;;13.20;7.15;;;;;;;14.95;65.80;99217.94;4951583;29;20038;-53
2022/05/10 02:44:42;;;;;;;8.63;7.47;;;;;;;14.89;66.26;99218.78;4935428;29;20043;-52
2022/05/10 02:47:09;;;;;;;8.77;6.78;;;;;;;14.82;66.63;99218.06;4951595;29;20019;-52
2022/05/10 02:49:37;;;;;;;7.55;6.75;;;;;;;14.74;66.80;99216.47;4951393;29;20031;-53
2022/05/10 02:52:04;;;;;;;8.25;7.47;;;;;;;14.72;67.08;99218.53;4951458;29;20063;-53
2022/05/10 02:54:30;;;;;;;9.25;7.18;;;;;;;14.63;66.93;99217.16;4951309;29;20047;-52
2022/05/10 02:56:59;;;;;;;12.00;7.10;;;;;;;14.59;66.99;99216.78;4935409;29;20027;-53
2022/05/10 02:59:30;;;;;;;12.77;9.07;;;;;;;14.48;67.44;99212.16;4951459;29;20042;-53
2022/05/10 03:02:08;;;;;;;26.13;23.77;;;;;;;14.57;67.88;99218.84;4951475;29;20031;-53
2022/05/10 03:04:36;;;;;;;14.90;13.40;;;;;;;14.78;67.16;99207.09;4951435;29;20035;-53
2022/05/10 03:07:05;;;;;;;11.63;7.72;;;;;;;14.74;67.21;99209.34;4953747;28;20050;-53
2022/05/10 03:09:31;;;;;;;11.00;7.20;;;;;;;14.78;66.81;99207.09;4955248;29;20382;-52
2022/05/10 03:11:57;;;;;;;9.93;7.32;;;;;;;14.69;66.68;99211.84;4987223;28;20049;-52
2022/05/10 03:14:23;;;;;;;8.35;7.65;;;;;;;14.65;67.32;99212.47;4994758;28;20034;-53
2022/05/10 03:16:49;;;;;;;8.68;6.82;;;;;;;14.67;66.99;99205.13;4994747;28;20526;-53
2022/05/10 03:19:16;;;;;;;9.63;7.20;;;;;;;14.68;66.65;99209.41;4994700;28;20053;-52
2022/05/10 03:21:42;;;;;;;16.20;8.23;;;;;;;14.58;67.27;99210.69;4995899;28;20029;-52
2022/05/10 03:24:09;;;;;;;9.23;8.18;;;;;;;14.66;67.25;99209.63;4994955;28;20097;-52
2022/05/10 03:26:36;;;;;;;7.55;6.55;;;;;;;14.74;67.13;99205.91;4995886;28;20034;-52
2022/05/10 03:29:02;;;;;;;9.20;8.30;;;;;;;14.78;66.71;99207.09;4994524;28;20029;-53
2022/05/10 03:31:28;;;;;;;11.38;7.50;;;;;;;14.79;66.86;99208.72;4995787;28;20511;-52
2022/05/10 03:36:39;;;;;;;10.10;7.80;;;;;;;14.80;66.43;99209.53;4995769;28;20514;-52
2022/05/10 03:39:05;;;;;;;9.35;7.40;;;;;;;14.75;66.79;99204.91;4994398;28;20026;-53
2022/05/10 03:41:31;;;;;;;11.25;6.90;;;;;;;14.75;66.89;99210.97;4994223;28;20530;-52
2022/05/10 03:43:57;;;;;;;8.57;7.82;;;;;;;14.69;66.61;99213.66;4995573;28;20026;-53
2022/05/10 03:46:22;;;;;;;7.25;6.43;;;;;;;14.61;66.87;99213.91;4995545;28;20026;-52
2022/05/10 03:48:50;;;;;;;8.40;7.60;;;;;;;14.45;67.14;99210.75;4995475;28;20027;-53
2022/05/10 03:51:16;;;;;;;12.35;7.75;;;;;;;14.34;67.59;99204.28;4995437;28;20026;-52
2022/05/10 03:53:42;;;;;;;9.98;7.30;;;;;;;14.34;67.58;99206.94;5003294;28;20511;-52
2022/05/10 03:56:09;;;;;;;8.45;7.63;;;;;;;14.30;67.80;99204.94;5014976;28;20021;-53
2022/05/10 03:58:35;;;;;;;8.40;6.68;;;;;;;14.27;68.09;99208.00;4997171;28;20072;-53
2022/05/10 04:01:01;;;;;;;10.38;6.50;;;;;;;14.26;68.48;99204.53;5014827;28;20147;-53
2022/05/10 04:03:26;;;;;;;9.35;7.20;;;;;;;14.23;68.14;99207.63;5014834;28;20105;-53
2022/05/10 04:05:52;;;;;;;10.02;7.78;;;;;;;14.23;68.15;99204.19;5014772;28;20537;-53
2022/05/10 04:08:18;;;;;;;7.38;6.68;;;;;;;14.22;68.12;99203.34;5014799;28;20030;-53
2022/05/10 04:10:44;;;;;;;10.98;8.07;;;;;;;14.25;68.12;99204.78;5014926;28;20014;-53
2022/05/10 04:13:10;;;;;;;10.45;7.20;;;;;;;14.36;68.05;99199.59;4997040;28;20026;-53
2022/05/10 04:15:36;;;;;;;10.45;6.93;;;;;;;14.48;67.75;99207.66;4996943;28;20018;-52
2022/05/10 04:18:03;;;;;;;11.45;7.47;;;;;;;14.49;67.44;99208.50;5013701;28;20129;-53
2022/05/10 04:20:29;;;;;;;7.43;6.50;;;;;;;14.53;67.19;99217.63;5014468;28;20083;-52
2022/05/10 04:22:55;;;;;;;9.40;7.22;;;;;;;14.42;67.02;99210.34;4996700;28;20022;-52
2022/05/10 04:25:25;;;;;;;9.57;7.05;;;;;;;14.37;67.51;99211.81;4996661;28;20034;-52
2022/05/10 04:27:52;;;;;;;8.70;6.88;;;;;;;14.41;66.89;99219.28;5014680;28;20648;-52
2022/05/10 04:30:18;;;;;;;8.07;7.15;;;;;;;14.37;67.23;99214.44;5014280;28;20129;-53
2022/05/10 04:32:44;;;;;;;12.27;8.27;;;;;;;14.43;67.18;99226.00;4980624;28;20411;-52
2022/05/10 04:35:12;;;;;;;11.10;6.93;;;;;;;14.37;67.18;99217.09;5014255;28;20173;-52
2022/05/10 04:37:38;;;;;;;10.15;7.35;;;;;;;14.39;67.56;99215.03;4996559;28;20030;-52
2022/05/10 04:42:52;;;;;;;8.65;6.75;;;;;;;14.98;66.64;99218.31;5014097;28;20036;-53
2022/05/10 04:45:18;;;;;;;11.93;6.93;;;;;;;15.62;64.68;99215.50;5013975;28;20054;-53
2022/05/10 04:47:45;;;;;;;11.43;6.40;;;;;;;16.14;62.90;99220.44;5014040;28;20018;-52
2022/05/10 04:50:11;;;;;;;13.27;8.52;;;;;;;16.53;61.75;99224.38;4996232;28;20026;-53
2022/05/10 04:52:38;;;;;;;10.02;6.65;;;;;;;17.12;59.43;99211.28;5013879;28;20080;-53
2022/05/10 04:55:05;;;;;;;8.48;6.13;;;;;;;17.69;57.90;99220.47;5013690;28;20042;-52
2022/05/10 04:57:31;;;;;;;10.10;6.82;;;;;;;18.05;56.55;99216.72;5013815;28;20034;-50
2022/05/10 04:59:57;;;;;;;14.98;6.35;;;;;;;18.14;55.59;99217.94;4996089;28;20022;-51
2022/05/10 05:02:22;;;;;;;12.30;7.07;;;;;;;17.98;56.28;99224.00;5013591;28;20407;-50
2022/05/10 05:04:48;;;;;;;10.90;6.28;;;;;;;18.01;56.21;99225.38;4996044;28;20113;-50
2022/05/10 05:07:14;;;;;;;11.60;6.50;;;;;;;17.93;56.51;99231.88;5013580;28;20036;-49
2022/05/10 05:09:39;;;;;;;12.60;6.20;;;;;;;17.91;56.47;99228.66;4996007;28;20522;-50
2022/05/10 05:12:05;;;;;;;9.38;6.25;;;;;;;18.13;56.28;99231.47;4995882;28;20026;-50
2022/05/10 05:14:34;;;;;;;11.23;6.70;;;;;;;18.32;55.78;99234.75;4995825;28;20026;-50
2022/05/10 05:17:00;;;;;;;13.45;6.65;;;;;;;18.82;55.02;99236.72;5013403;28;20017;-51
2022/05/10 05:19:26;;;;;;;7.55;6.28;;;;;;;19.39;53.28;99242.91;4995778;28;20064;-50
2022/05/10 05:21:51;;;;;;;9.32;6.35;;;;;;;19.80;51.94;99243.50;5013264;28;20026;-50
2022/05/10 05:24:17;;;;;;;10.82;6.55;;;;;;;19.89;51.19;99236.69;5013335;28;20022;-50
2022/05/10 05:26:43;;;;;;;8.15;6.45;;;;;;;20.25;50.71;99250.44;4995653;28;20033;-50
2022/05/10 05:29:08;;;;;;;8.43;7.53;;;;;;;21.19;49.36;99246.53;4995801;28;20072;-50
2022/05/10 05:31:34;;;;;;;18.13;6.82;;;;;;;22.08;46.47;99241.41;4995479;28;20033;-49
2022/05/10 05:34:00;;;;;;;10.40;6.55;;;;;;;22.89;45.77;99246.13;5013159;28;20093;-50
2022/05/10 05:36:26;;;;;;;25.48;6.65;;;;;;;23.89;43.25;99251.91;5013055;28;20030;-50
2022/05/10 05:38:51;;;;;;;24.88;6.90;;;;;;;25.03;41.03;99250.16;5013075;28;20029;-51
2022/05/10 05:41:20;;;;;;;85.10;10.63;;;;;;;25.96;39.31;99250.84;5012942;28;20022;-51
2022/05/10 05:43:46;;;;;;;33.65;7.65;;;;;;;26.35;38.02;99244.41;4995298;28;20196;-50
2022/05/10 05:46:12;;;;;;;21.63;7.85;;;;;;;26.49;37.62;99247.19;5012910;28;20596;-50
2022/05/10 05:48:38;;;;;;;18.35;9.55;;;;;;;26.85;36.74;99260.91;5012908;28;20029;-51
2022/05/10 05:51:04;;;;;;;19.25;14.07;;;;;;;26.56;36.54;99255.69;4995160;28;20399;-51
2022/05/10 05:53:30;;;;;;;23.48;16.10;;;;;;;26.39;36.59;99253.50;4994839;28;20523;-51
2022/05/10 05:56:04;;;;;;;20.33;16.08;;;;;;;26.29;36.82;99257.13;5012684;28;20018;-50
2022/05/10 05:58:30;;;;;;;19.48;12.85;;;;;;;26.64;36.15;99259.63;5012747;28;20045;-50
2022/05/10 06:00:56;;;;;;;18.67;12.30;;;;;;;26.83;35.60;99251.53;4994968;28;20018;-50
2022/05/10 06:03:22;;;;;;;15.90;8.43;;;;;;;26.83;35.69;99252.34;4994906;28;20161;-50
2022/05/10 06:05:49;;;;;;;10.00;7.15;;;;;;;27.15;35.53;99250.72;4994897;28;20029;-50
2022/05/10 06:08:16;;;;;;;10.90;6.22;;;;;;;27.09;34.93;99250.00;5012547;28;20045;-50
2022/05/10 06:10:42;;;;;;;15.25;6.93;;;;;;;26.89;35.66;99263.84;4994833;28;20584;-50
2022/05/10 06:13:09;;;;;;;19.95;6.57;;;;;;;27.07;35.32;99262.19;5012527;28;20037;-50
2022/05/10 06:15:36;;;;;;;12.10;6.35;;;;;;;27.68;34.55;99263.78;4994836;28;20407;-50
2022/05/10 06:18:04;;;;;;;31.17;11.90;;;;;;;28.42;33.54;99265.53;5012426;28;20033;-50
2022/05/10 06:20:30;;;;;;;13.98;5.85;;;;;;;29.17;32.11;99257.84;4995020;28;20026;-49
2022/05/10 06:22:56;;;;;;;13.18;6.40;;;;;;;29.77;31.42;99261.94;5012355;28;20032;-50
2022/05/10 06:25:24;;;;;;;25.83;6.78;;;;;;;29.57;31.73;99262.50;5012244;28;20026;-50
2022/05/10 06:27:52;;;;;;;22.80;8.45;;;;;;;29.85;31.33;99272.00;5012221;28;20096;-51
2022/05/10 06:30:20;;;;;;;36.35;9.07;;;;;;;30.79;30.02;99265.44;4994573;28;20028;-51
2022/05/10 06:32:46;;;;;;;64.10;11.70;;;;;;;31.73;28.63;99265.47;4994651;28;20029;-51
2022/05/10 06:35:12;;;;;;;36.40;8.90;;;;;;;32.78;27.42;99262.88;5012205;28;20030;-51
2022/05/10 06:40:22;;;;;;;39.67;23.07;;;;;;;34.29;25.90;99256.06;5011923;28;20033;-52
2022/05/10 06:42:48;;;;;;;34.60;11.68;;;;;;;35.04;25.06;99249.22;5011901;28;20022;-51
2022/05/10 06:45:17;;;;;;;50.45;13.82;;;;;;;35.60;24.15;99252.56;4994321;28;20472;-52
2022/05/10 06:47:46;;;;;;;19.05;10.23;;;;;;;35.86;23.51;99259.44;5012040;28;20050;-51
2022/05/10 06:50:15;;;;;;;33.90;10.32;;;;;;;35.66;23.49;99255.84;5011981;28;20495;-50
2022/05/10 06:52:40;;;;;;;18.50;9.32;;;;;;;35.27;24.19;99254.88;5012014;28;20018;-51
2022/05/10 06:55:07;;;;;;;19.75;11.15;;;;;;;35.32;23.96;99255.41;5012365;28;20038;-51
2022/05/10 06:57:33;;;;;;;20.90;12.82;;;;;;;35.07;24.13;99262.91;5012000;28;20080;-50
2022/05/10 06:59:59;;;;;;;19.10;9.43;;;;;;;35.34;24.02;99255.84;5011987;28;20466;-50
2022/05/10 07:02:25;;;;;;;13.50;7.32;;;;;;;35.57;24.05;99252.47;5011834;28;20036;-51
2022/05/10 07:04:52;;;;;;;25.08;6.35;;;;;;;36.15;23.28;99251.88;5011929;28;20033;-51
2022/05/10 07:07:18;;;;;;;28.40;6.95;;;;;;;36.17;22.76;99258.56;5011823;28;20081;-51
2022/05/10 07:09:44;;;;;;;45.60;8.10;;;;;;;35.60;23.82;99249.84;4994189;28;20572;-51
2022/05/10 07:12:10;;;;;;;20.77;7.18;;;;;;;35.42;24.07;99256.81;5011826;28;20040;-49
2022/05/10 07:14:37;;;;;;;22.35;7.65;;;;;;;35.13;24.56;99258.78;4994235;28;20507;-51
2022/05/10 07:17:03;;;;;;;8.77;5.97;;;;;;;35.45;24.06;99258.81;4994111;28;20037;-51
2022/05/10 07:19:28;;;;;;;26.05;8.18;;;;;;;35.78;24.18;99260.41;5011817;28;20018;-51
2022/05/10 07:21:54;;;;;;;22.02;6.20;;;;;;;35.87;23.93;99254.75;5011630;28;20033;-49
2022/05/10 07:24:20;;;;;;;28.90;7.40;;;;;;;35.29;24.21;99253.38;4994187;28;20057;-49
2022/05/10 07:26:47;;;;;;;15.95;5.72;;;;;;;35.47;24.16;99245.59;5011708;28;20025;-49
2022/05/10 07:29:15;;;;;;;23.92;6.40;;;;;;;35.88;23.38;99250.84;5011631;28;20018;-48
2022/05/10 07:31:41;;;;;;;51.50;8.95;;;;;;;36.15;23.13;99249.13;5011624;28;20026;-49
2022/05/10 07:34:07;;;;;;;20.75;5.75;;;;;;;36.17;23.29;99244.09;5011641;28;20442;-49
2022/05/10 07:36:34;;;;;;;22.98;6.43;;;;;;;36.77;22.58;99244.53;5011659;28;20439;-49
2022/05/10 07:39:01;;;;;;;18.52;5.43;;;;;;;37.17;22.07;99237.06;5011573;28;20030;-50
2022/05/10 07:41:27;;;;;;;28.92;8.00;;;;;;;37.37;21.87;99237.78;5011469;28;20109;-49
2022/05/10 07:43:53;;;;;;;29.70;11.07;;;;;;;37.48;22.08;99241.44;4993844;28;20493;-49
2022/05/10 07:46:19;;;;;;;14.82;6.22;;;;;;;37.73;21.94;99241.06;5011541;28;20046;-48
2022/05/10 07:48:45;;;;;;;23.25;8.35;;;;;;;37.63;21.75;99247.97;5011475;28;20018;-49
2022/05/10 07:51:11;;;;;;;10.52;7.13;;;;;;;37.48;22.57;99246.91;5011439;28;20562;-50
2022/05/10 07:53:36;;;;;;;14.23;5.68;;;;;;;37.18;22.19;99233.16;4991846;28;20046;-49
2022/05/10 07:56:03;;;;;;;13.50;4.50;;;;;;;36.51;23.06;99239.72;4994027;28;20026;-49
2022/05/10 07:58:30;;;;;;;19.50;4.88;;;;;;;36.11;23.60;99240.84;4995341;28;20121;-49
2022/05/10 08:00:56;;;;;;;12.93;4.03;;;;;;;36.30;23.53;99237.38;4993881;28;20081;-49
2022/05/10 08:03:24;;;;;;;22.77;6.53;;;;;;;36.96;22.79;99237.44;4977682;28;20040;-49
2022/05/10 08:05:52;;;;;;;14.40;4.57;;;;;;;37.09;22.70;99240.81;4993890;28;20025;-52
2022/05/10 08:08:18;;;;;;;10.02;4.57;;;;;;;37.21;22.28;99240.63;4993854;28;20026;-52
2022/05/10 08:10:46;;;;;;;7.25;3.75;;;;;;;36.98;22.79;99240.59;4995119;28;20018;-52
2022/05/10 08:13:16;;;;;;;8.77;3.60;;;;;;;37.33;22.70;99234.97;4995095;28;20026;-50
2022/05/10 08:15:42;;;;;;;14.10;4.47;;;;;;;37.88;22.15;99237.34;4995063;28;20373;-48
2022/05/10 08:18:09;;;;;;;22.58;4.75;;;;;;;38.42;22.07;99231.81;4993699;28;20065;-49
2022/05/10 08:20:35;;;;;;;14.18;3.28;;;;;;;38.58;20.75;99226.91;4993613;28;20088;-49
2022/05/10 08:23:01;;;;;;;8.73;4.15;;;;;;;38.15;20.91;99229.94;4994819;28;20034;-49
2022/05/10 08:25:27;;;;;;;7.55;4.00;;;;;;;38.48;20.60;99227.56;4994881;28;20018;-49
2022/05/10 08:27:53;;;;;;;4.60;3.13;;;;;;;39.25;20.23;99225.97;4993518;28;20026;-50
2022/05/10 08:30:18;;;;;;;7.55;3.03;;;;;;;40.01;19.14;99224.53;4993447;28;20496;-51
2022/05/10 08:32:44;;;;;;;12.95;3.60;;;;;;;40.06;19.02;99226.91;4994766;28;20385;-52
2022/05/10 08:35:10;;;;;;;6.10;3.83;;;;;;;39.51;19.43;99222.25;4994672;28;20025;-51
2022/05/10 08:37:37;;;;;;;6.13;3.50;;;;;;;39.46;19.65;99221.81;4993487;28;20033;-52
2022/05/10 08:40:26;;;;;;;10.30;3.63;;;;;;;38.65;19.89;99224.22;4994593;28;20404;-52
2022/05/10 08:42:54;;;;;;;6.95;3.10;;;;;;;38.50;20.59;99225.22;4994545;28;20563;-52
2022/05/10 08:45:24;;;;;;;7.97;3.30;;;;;;;39.29;19.30;99228.75;4993124;28;20090;-52
2022/05/10 08:47:51;;;;;;;8.68;3.20;;;;;;;40.01;18.58;99218.25;4994469;28;20033;-51
2022/05/10 08:50:17;;;;;;;6.72;3.20;;;;;;;41.02;17.93;99225.59;4994727;28;20380;-51
2022/05/10 08:52:47;;;;;;;5.85;3.17;;;;;;;41.53;17.26;99218.09;4993215;28;20026;-52
2022/05/10 08:55:21;;;;;;;10.48;4.47;;;;;;;41.49;17.34;99220.88;4994584;28;20039;-51
2022/05/10 08:58:27;;;;;;;15.93;4.63;;;;;;;40.90;18.15;99210.25;4994402;28;20512;-54
2022/05/10 09:00:57;;;;;;;18.38;4.40;;;;;;;41.16;18.08;99221.28;4994286;28;20027;-53
2022/05/10 09:03:40;;;;;;;16.15;4.30;;;;;;;41.51;17.52;99218.53;4994541;28;20130;-53
2022/05/10 09:06:36;;;;;;;5.40;3.40;;;;;;;41.48;17.58;99213.00;4992894;28;20149;-53
2022/05/10 09:09:08;;;;;;;12.50;3.45;;;;;;;41.89;17.17;99215.28;4994195;28;20650;-52
2022/05/10 09:11:50;;;;;;;9.73;3.60;;;;;;;42.17;17.14;99213.63;4994067;28;20043;-53
2022/05/10 09:14:16;;;;;;;10.57;3.88;;;;;;;42.27;16.65;99216.31;4994046;28;20026;-52
2022/05/10 09:16:41;;;;;;;21.88;4.25;;;;;;;41.60;17.29;99211.84;4993929;28;20539;-53
2022/05/10 09:19:11;;;;;;;30.85;5.53;;;;;;;41.76;17.33;99209.44;4993884;28;20034;-53
2022/05/10 09:21:49;;;;;;;20.77;4.32;;;;;;;42.28;17.04;99209.63;4993786;28;20026;-52
2022/05/10 09:24:41;;;;;;;16.85;4.70;;;;;;;42.52;16.84;99207.13;4993799;28;20027;-53
2022/05/10 09:27:12;;;;;;;16.73;4.47;;;;;;;42.91;16.46;99208.09;4993766;28;20093;-52
2022/05/10 09:29:42;;;;;;;27.80;5.28;;;;;;;43.34;16.03;99205.75;4993767;28;20044;-54
2022/05/10 09:35:24;;;;;;;9.35;3.63;;;;;;;43.19;16.22;99199.53;4993629;28;20088;-54
2022/05/10 09:38:00;;;;;;;10.98;3.35;;;;;;;43.47;15.66;99206.03;4992247;28;20092;-55
2022/05/10 09:40:44;;;;;;;15.50;4.68;;;;;;;42.70;15.98;99207.81;4993546;28;20084;-54
2022/05/10 09:43:32;;;;;;;16.45;3.47;;;;;;;41.60;17.15;99203.56;4992128;28;20420;-51
2022/05/10 09:46:11;;;;;;;18.27;4.47;;;;;;;41.46;17.65;99207.88;4992047;28;20034;-52
2022/05/10 09:48:42;;;;;;;21.25;4.47;;;;;;;41.54;17.33;99199.63;4992081;28;20117;-52
2022/05/10 09:51:45;;;;;;;21.38;4.78;;;;;;;41.83;17.38;99206.63;4993266;28;20053;-51
2022/05/10 09:54:16;;;;;;;10.50;3.13;;;;;;;41.77;16.66;99191.69;5001051;28;20049;-52
2022/05/10 09:56:44;;;;;;;20.77;3.47;;;;;;;41.15;17.02;99195.69;5012793;28;20018;-51
2022/05/10 09:59:22;;;;;;;14.88;4.03;;;;;;;39.57;18.75;99197.19;5012739;28;20555;-52
2022/05/10 10:01:56;;;;;;;15.18;3.60;;;;;;;38.64;20.10;99189.75;5012659;28;20037;-52
2022/05/10 10:04:48;;;;;;;11.45;3.22;;;;;;;38.88;19.67;99191.13;5012711;28;20029;-50
2022/05/10 10:07:17;;;;;;;6.97;3.72;;;;;;;38.49;19.86;99188.75;5010616;28;20066;-51
2022/05/10 10:09:48;;;;;;;9.30;3.63;;;;;;;37.95;20.13;99182.66;4994892;28;20069;-50
2022/05/10 10:12:39;;;;;;;15.15;3.72;;;;;;;36.64;20.71;99185.66;5012585;28;20491;-51
2022/05/10 10:15:35;;;;;;;12.52;3.50;;;;;;;35.58;21.67;99197.53;5012277;28;20377;-51
2022/05/10 10:18:04;;;;;;;6.32;3.35;;;;;;;34.51;23.18;99186.59;4994820;28;20402;-51
2022/05/10 10:20:43;;;;;;;3.95;2.78;;;;;;;33.63;24.29;99195.38;5012427;28;20057;-51
2022/05/10 10:23:29;;;;;;;3.92;2.88;;;;;;;33.23;25.31;99196.03;5012398;28;20453;-51
2022/05/10 10:26:00;;;;;;;6.60;3.65;;;;;;;34.53;24.29;99192.50;5012301;28;20033;-51
2022/05/10 10:28:58;;;;;;;5.18;2.80;;;;;;;36.15;22.32;99197.22;5012616;28;20491;-51
2022/05/10 10:31:37;;;;;;;3.65;2.40;;;;;;;37.20;20.56;99186.25;5011858;28;20041;-51
2022/05/10 10:34:19;;;;;;;8.43;3.20;;;;;;;38.39;19.20;99183.94;5012262;28;20501;-51
2022/05/10 10:37:04;;;;;;;5.53;3.03;;;;;;;39.00;18.59;99178.31;5012165;28;20018;-51
2022/05/10 10:39:36;;;;;;;5.60;2.28;;;;;;;39.62;17.89;99181.09;4994529;28;20491;-53
2022/05/10 10:42:05;;;;;;;2.80;2.15;;;;;;;39.61;17.48;99179.53;5012154;28;20556;-52
2022/05/10 10:44:34;;;;;;;6.38;2.47;;;;;;;39.55;17.24;99179.13;4994418;28;20507;-53
2022/05/10 10:47:18;;;;;;;4.13;2.45;;;;;;;40.10;17.25;99175.44;5012044;28;20109;-53
2022/05/10 10:49:55;;;;;;;3.83;2.00;;;;;;;40.77;16.58;99172.50;5012053;28;20563;-53
2022/05/10 10:52:23;;;;;;;5.68;3.40;;;;;;;40.47;16.49;99168.13;4994316;28;20096;-53
2022/05/10 10:54:49;;;;;;;3.88;1.65;;;;;;;38.75;17.78;99168.66;5011821;28;20054;-53
2022/05/10 10:57:39;;;;;;;9.10;2.72;;;;;;;37.45;18.68;99170.19;4994516;28;20041;-49
2022/05/10 11:00:15;;;;;;;5.18;2.47;;;;;;;36.12;19.77;99168.66;5011995;28;20033;-50
2022/05/10 11:02:54;;;;;;;9.40;2.63;;;;;;;35.25;20.41;99167.88;4994218;28;20153;-50
2022/05/10 11:05:51;;;;;;;6.53;3.15;;;;;;;34.74;21.57;99174.03;5011972;28;20036;-50
2022/05/10 11:08:19;;;;;;;13.40;3.03;;;;;;;34.46;21.88;99157.69;4994363;28;20080;-50
2022/05/10 11:11:15;;;;;;;13.15;2.75;;;;;;;35.18;21.58;99165.00;5011818;28;20399;-50
2022/05/10 11:13:59;;;;;;;5.65;2.50;;;;;;;35.08;21.49;99160.06;4994184;28;20153;-50
2022/05/10 11:16:43;;;;;;;3.60;2.65;;;;;;;34.87;21.65;99158.38;5011878;28;20028;-50
2022/05/10 11:19:09;;;;;;;6.40;2.70;;;;;;;35.91;21.00;99157.28;5011907;28;20030;-50
2022/05/10 11:22:07;;;;;;;9.50;3.80;;;;;;;37.03;20.51;99154.66;5011723;28;20482;-50
2022/05/10 11:24:38;;;;;;;4.85;2.30;;;;;;;37.56;18.80;99149.22;4994238;28;20053;-50
2022/05/10 11:27:34;;;;;;;13.05;2.50;;;;;;;38.58;18.14;99144.63;5012614;28;20034;-50
2022/05/10 11:30:26;;;;;;;2.17;1.90;;;;;;;39.40;17.49;99140.94;5015624;28;20021;-52
2022/05/10 11:33:24;;;;;;;7.00;2.42;;;;;;;40.07;16.61;99140.50;5008098;28;20045;-53
2022/05/10 11:35:59;;;;;;;12.93;2.30;;;;;;;39.84;15.95;99127.03;5001071;28;20077;-53
2022/05/10 11:38:46;;;;;;;7.43;2.00;;;;;;;39.99;16.43;99127.91;5015473;28;20033;-53
2022/05/10 11:41:57;;;;;;;4.18;2.10;;;;;;;39.50;16.22;99130.03;4997706;28;20120;-53
2022/05/10 11:44:43;;;;;;;4.30;1.70;;;;;;;39.25;16.71;99127.13;4999285;28;20060;-53
2022/05/10 11:47:33;;;;;;;14.52;3.25;;;;;;;39.14;16.39;99134.50;5015265;28;20033;-53
2022/05/10 11:50:17;;;;;;;4.70;1.90;;;;;;;39.71;16.42;99123.84;4997559;28;20064;-53
2022/05/10 11:53:03;;;;;;;;;;;;;;;40.00;16.30;99126.72;5015532;28;20507;-54
2022/05/10 11:55:47;;;;;;;3.15;1.70;;;;;;;39.06;16.34;99122.69;5015089;28;20037;-53
2022/05/10 11:58:14;;;;;;;3.90;1.90;;;;;;;38.79;16.78;99122.06;5015058;28;20028;-53
2022/05/10 12:00:51;;;;;;;5.45;2.25;;;;;;;38.68;16.13;99115.69;5014915;28;20026;-53
2022/05/10 12:03:39;;;;;;;8.40;2.13;;;;;;;38.29;16.13;99114.13;5014908;28;20033;-53